Terminal Aerodrome Forecast
Issued by NWS Burlington, VT

Home | Current Version | Previous Version | Text Only | Print | Product List | Glossary On
Versions: 1 2 3 4 5 6 7 8 9 10 11 12 13 14
000
FTUS41 KBTV 020538
TAFBTV
TAF
KBTV 020538Z 0206/0306 VRB03KT P6SM SCT008 OVC020
      TEMPO 0206/0208 -SHRADZ
     FM021100 15005KT 5SM BR BKN020 OVC025
     FM021500 07005KT 3SM -SHRA BR SCT008 OVC015
     FM021900 36005KT 3SM -SHRA BR SCT008 OVC015
     FM022300 32004KT P6SM VCSH SCT008 OVC015
     FM030300 VRB03KT P6SM OVC015=

USA.gov is the U.S. government's official web portal to all federal, state and local government web resources and services.